Time;durP1;ratioP1;P1;durP2;ratioP2;P2;SDS_P1;SDS_P2;PMS_P1;PMS_P2;Temp;Humidity;BMP_temperature;BMP_pressure;BME280_temperature;BME280_humidity;BME280_pressure;Samples;Min_cycle;Max_cycle;Signal;HPM_P1;HPM_P2
2022/05/22 00:00:21;;;;;;;1999.90;999.90;;;15.40;99.90;;;;;;5053445;28;20701;-68
2022/05/22 00:02:46;;;;;;;1999.90;999.90;;;15.40;99.90;;;;;;5053257;28;20796;-68
2022/05/22 00:05:16;;;;;;;1999.90;999.90;;;15.30;99.90;;;;;;5053063;28;20498;-68
2022/05/22 00:07:42;;;;;;;1999.90;999.90;;;15.30;99.90;;;;;;5053528;28;20182;-68
2022/05/22 00:10:08;;;;;;;1999.90;999.90;;;15.30;99.90;;;;;;5053269;28;20899;-68
2022/05/22 00:12:34;;;;;;;1999.90;999.90;;;15.30;99.90;;;;;;5053173;28;20624;-68
2022/05/22 00:14:59;;;;;;;1999.90;999.90;;;15.30;99.90;;;;;;5052859;28;20498;-68
2022/05/22 00:17:25;;;;;;;1999.90;999.90;;;15.30;99.90;;;;;;5053050;28;20208;-68
2022/05/22 00:19:51;;;;;;;1999.90;999.90;;;15.30;99.90;;;;;;5053256;28;20175;-68
2022/05/22 00:22:17;;;;;;;1999.90;999.90;;;15.20;99.90;;;;;;5052970;28;20187;-69
2022/05/22 00:24:43;;;;;;;1999.90;999.90;;;15.20;99.90;;;;;;5052804;28;20178;-69
2022/05/22 00:27:08;;;;;;;1999.90;999.90;;;15.20;99.90;;;;;;5052851;28;20408;-69
2022/05/22 00:29:34;;;;;;;1999.90;999.90;;;15.10;99.90;;;;;;5052859;28;20225;-68
2022/05/22 00:32:00;;;;;;;1999.90;999.90;;;15.10;99.90;;;;;;5052610;28;20253;-68
2022/05/22 00:34:26;;;;;;;1999.90;999.90;;;15.10;99.90;;;;;;5052312;28;20191;-68
2022/05/22 00:36:51;;;;;;;1999.90;999.90;;;15.00;99.90;;;;;;5052597;28;20202;-69
2022/05/22 00:39:17;;;;;;;1999.90;999.90;;;15.00;99.90;;;;;;5052700;28;20424;-68
2022/05/22 00:41:51;;;;;;;1999.90;999.90;;;14.90;99.90;;;;;;5052606;28;20683;-70
2022/05/22 00:44:17;;;;;;;1999.90;999.90;;;14.90;99.90;;;;;;5052341;28;20521;-69
2022/05/22 00:46:43;;;;;;;1999.90;999.90;;;14.90;99.90;;;;;;5052653;28;20986;-69
2022/05/22 00:49:22;;;;;;;1999.90;999.90;;;14.80;99.90;;;;;;5052466;28;20458;-69
2022/05/22 00:51:59;;;;;;;1999.90;999.90;;;14.80;99.90;;;;;;5052428;28;20193;-69
2022/05/22 00:54:32;;;;;;;1999.90;999.90;;;14.70;99.90;;;;;;5052221;28;20443;-68
2022/05/22 00:57:13;;;;;;;1999.90;999.90;;;14.60;99.90;;;;;;5052279;28;20466;-68
2022/05/22 00:59:47;;;;;;;1999.90;999.90;;;14.40;99.90;;;;;;5052352;28;20418;-69
2022/05/22 01:02:15;;;;;;;1999.90;999.90;;;14.40;99.90;;;;;;5052225;28;20421;-70
2022/05/22 01:04:42;;;;;;;1999.90;999.90;;;14.30;99.90;;;;;;5052029;28;20402;-68
2022/05/22 01:07:08;;;;;;;1999.90;999.90;;;14.30;99.90;;;;;;5052137;28;20564;-69
2022/05/22 01:09:35;;;;;;;1999.90;999.90;;;14.20;99.90;;;;;;5052116;28;20412;-68
2022/05/22 01:12:13;;;;;;;1999.90;999.90;;;14.10;99.90;;;;;;5052090;28;20950;-69
2022/05/22 01:14:39;;;;;;;1999.90;999.90;;;14.10;99.90;;;;;;5051976;28;20480;-68
2022/05/22 01:17:08;;;;;;;1999.90;999.90;;;14.10;99.90;;;;;;5051979;28;20503;-68
2022/05/22 01:19:34;;;;;;;1999.90;999.90;;;14.10;99.90;;;;;;5051986;28;20401;-69
2022/05/22 01:22:03;;;;;;;1999.90;999.90;;;14.10;99.90;;;;;;5051847;28;20449;-68
2022/05/22 01:24:29;;;;;;;1999.90;999.90;;;14.10;99.90;;;;;;5051663;28;20405;-69
2022/05/22 01:26:58;;;;;;;1999.90;999.90;;;14.10;99.90;;;;;;5051904;28;20408;-69
2022/05/22 01:29:24;;;;;;;1999.90;999.90;;;14.10;99.90;;;;;;5051941;28;20413;-68
2022/05/22 01:31:49;;;;;;;1999.90;999.90;;;14.10;99.90;;;;;;5051641;28;20449;-68
2022/05/22 01:34:15;;;;;;;1999.90;999.90;;;14.00;99.90;;;;;;5051585;28;20423;-68
2022/05/22 01:36:41;;;;;;;1999.90;999.90;;;13.90;99.90;;;;;;5051768;28;20251;-69
2022/05/22 01:39:07;;;;;;;1999.90;999.90;;;13.80;99.90;;;;;;5051773;28;20215;-69
2022/05/22 01:41:33;;;;;;;1999.90;999.90;;;13.70;99.90;;;;;;5051850;28;20531;-68
2022/05/22 01:43:59;;;;;;;1999.90;999.90;;;13.70;99.90;;;;;;5051638;28;20413;-68
2022/05/22 01:46:25;;;;;;;1999.90;999.90;;;13.70;99.90;;;;;;5054463;28;20170;-69
2022/05/22 01:48:50;;;;;;;1999.90;999.90;;;13.60;99.90;;;;;;5055902;28;20415;-69
2022/05/22 01:51:16;;;;;;;1999.90;999.90;;;13.60;99.90;;;;;;5055898;28;20417;-69
2022/05/22 01:53:42;;;;;;;1999.90;999.90;;;13.60;99.90;;;;;;5055654;28;20202;-68
2022/05/22 01:56:08;;;;;;;1999.90;999.90;;;13.60;99.90;;;;;;5055541;28;20201;-68
2022/05/22 01:58:34;;;;;;;1999.90;999.90;;;13.60;99.90;;;;;;5055731;28;20637;-68
2022/05/22 02:00:59;;;;;;;1999.90;999.90;;;13.60;99.90;;;;;;5055676;28;20479;-69
2022/05/22 02:03:25;;;;;;;1999.90;999.90;;;13.60;99.90;;;;;;5055550;28;20346;-69
2022/05/22 02:05:50;;;;;;;1999.90;999.90;;;13.50;99.90;;;;;;5055297;28;20230;-69
2022/05/22 02:08:19;;;;;;;1999.90;999.90;;;13.40;99.90;;;;;;5055517;28;20177;-68
2022/05/22 02:10:46;;;;;;;1999.90;999.90;;;13.40;99.90;;;;;;5055537;28;20270;-70
2022/05/22 02:13:16;;;;;;;1999.90;999.90;;;13.40;99.90;;;;;;5055434;28;20443;-68
2022/05/22 02:15:44;;;;;;;1999.90;999.90;;;13.30;99.90;;;;;;5055110;28;20919;-68
2022/05/22 02:18:09;;;;;;;1999.90;999.90;;;13.20;99.90;;;;;;5055349;28;20441;-69
2022/05/22 02:20:35;;;;;;;1999.90;999.90;;;13.20;99.90;;;;;;5055293;28;20411;-68
2022/05/22 02:23:00;;;;;;;1999.90;999.90;;;13.20;99.90;;;;;;5055203;28;20735;-69
2022/05/22 02:25:30;;;;;;;1999.90;999.90;;;13.20;99.90;;;;;;5054926;28;20172;-69
2022/05/22 02:27:55;;;;;;;1999.90;999.90;;;13.20;99.90;;;;;;5055225;28;20647;-70
2022/05/22 02:30:25;;;;;;;1999.90;999.90;;;13.20;99.90;;;;;;5055233;28;20454;-70
2022/05/22 02:32:51;;;;;;;1999.90;999.90;;;13.10;99.90;;;;;;5054993;28;20638;-69
2022/05/22 02:35:17;;;;;;;1999.90;999.90;;;13.10;99.90;;;;;;5108293;22;20998;-70
2022/05/22 02:37:50;;;;;;;1999.90;999.90;;;13.00;99.90;;;;;;5075341;28;20433;-71
2022/05/22 02:40:19;;;;;;;1999.90;999.90;;;13.00;99.90;;;;;;5074961;28;20549;-71
2022/05/22 02:42:47;;;;;;;1999.90;999.90;;;13.00;99.90;;;;;;5074902;28;20489;-71
2022/05/22 02:45:15;;;;;;;1999.90;999.90;;;13.00;99.90;;;;;;5074570;28;20444;-71
2022/05/22 02:47:41;;;;;;;1999.90;999.90;;;12.90;99.90;;;;;;5074988;28;20403;-71
2022/05/22 02:50:08;;;;;;;1999.90;999.90;;;12.70;99.90;;;;;;5074992;28;20397;-71
2022/05/22 02:52:33;;;;;;;1999.90;999.90;;;12.60;99.90;;;;;;5074771;28;20410;-71
2022/05/22 02:54:59;;;;;;;1999.90;999.90;;;12.50;99.90;;;;;;5074403;28;20418;-71
2022/05/22 02:57:25;;;;;;;1999.90;999.90;;;12.50;99.90;;;;;;5074551;28;20203;-70
2022/05/22 02:59:52;;;;;;;1999.90;999.90;;;12.50;99.90;;;;;;5074680;28;20242;-71
2022/05/22 03:02:18;;;;;;;1999.90;999.90;;;12.50;99.90;;;;;;5074618;28;20196;-71
2022/05/22 03:04:44;;;;;;;1999.90;999.90;;;12.50;99.90;;;;;;5074243;28;20447;-71
2022/05/22 03:07:12;;;;;;;1999.90;999.90;;;12.50;99.90;;;;;;5074489;28;20407;-71
2022/05/22 03:09:40;;;;;;;1999.90;999.90;;;12.50;99.90;;;;;;5074517;28;20395;-71
2022/05/22 03:12:11;;;;;;;1999.90;999.90;;;12.50;99.90;;;;;;5074434;28;20778;-71
2022/05/22 03:14:37;;;;;;;1999.90;999.90;;;12.50;99.90;;;;;;5073944;28;20466;-71
2022/05/22 03:17:02;;;;;;;1999.90;999.90;;;12.50;99.90;;;;;;5074209;28;20518;-71
2022/05/22 03:19:28;;;;;;;1999.90;999.90;;;12.50;99.90;;;;;;5074314;28;20190;-71
2022/05/22 03:21:53;;;;;;;1999.90;999.90;;;12.50;99.90;;;;;;5074204;28;20544;-71
2022/05/22 03:24:19;;;;;;;1999.90;999.90;;;12.60;99.90;;;;;;5073794;28;20180;-71
2022/05/22 03:26:45;;;;;;;1999.90;999.90;;;12.50;99.90;;;;;;5074099;28;20176;-71
2022/05/22 03:29:11;;;;;;;1999.90;999.90;;;12.40;99.90;;;;;;5074150;28;20402;-72
2022/05/22 03:31:37;;;;;;;1999.90;999.90;;;12.40;99.90;;;;;;5074034;28;20180;-72
2022/05/22 03:34:03;;;;;;;1999.90;999.90;;;12.40;99.90;;;;;;5073642;28;20798;-71
2022/05/22 03:36:29;;;;;;;1999.90;999.90;;;12.30;99.90;;;;;;5073837;28;20452;-71
2022/05/22 03:38:55;;;;;;;1999.90;999.90;;;12.30;99.90;;;;;;5073924;28;20394;-71
2022/05/22 03:41:21;;;;;;;1999.90;999.90;;;12.30;99.90;;;;;;5073796;28;20406;-71
2022/05/22 03:43:47;;;;;;;1999.90;999.90;;;12.30;99.90;;;;;;5073877;28;20413;-71
2022/05/22 03:46:13;;;;;;;1999.90;999.90;;;12.40;99.90;;;;;;5073495;28;20429;-71
2022/05/22 03:48:40;;;;;;;1999.90;999.90;;;12.30;99.90;;;;;;5073732;28;20588;-70
2022/05/22 03:51:06;;;;;;;1999.90;999.90;;;12.30;99.90;;;;;;5073658;28;20167;-70
2022/05/22 03:53:31;;;;;;;1999.90;999.90;;;12.20;99.90;;;;;;5073494;28;20413;-70
2022/05/22 03:55:57;;;;;;;1999.90;999.90;;;12.20;99.90;;;;;;5073195;28;20280;-70
2022/05/22 03:58:23;;;;;;;1999.90;999.90;;;12.20;99.90;;;;;;5073523;28;20262;-71
2022/05/22 04:00:48;;;;;;;1999.90;999.90;;;12.20;99.90;;;;;;5073609;28;20178;-70
2022/05/22 04:03:14;;;;;;;1999.90;999.90;;;12.20;99.90;;;;;;5073416;28;20199;-70
2022/05/22 04:05:40;;;;;;;1999.90;999.90;;;12.20;99.90;;;;;;5074350;28;20194;-69
2022/05/22 04:08:06;;;;;;;1999.90;999.90;;;12.20;99.90;;;;;;5072875;28;20735;-72
2022/05/22 04:10:31;;;;;;;1999.90;999.90;;;12.10;99.90;;;;;;5073191;28;20661;-72
2022/05/22 04:12:57;;;;;;;1999.90;999.90;;;12.20;99.90;;;;;;5073289;28;20402;-72
2022/05/22 04:15:23;;;;;;;1999.90;999.90;;;12.20;99.90;;;;;;5072760;28;20261;-72
2022/05/22 04:17:48;;;;;;;1999.90;999.90;;;12.10;99.90;;;;;;5073111;28;20163;-71
2022/05/22 04:20:15;;;;;;;1999.90;999.90;;;12.10;99.90;;;;;;5073009;28;20178;-71
2022/05/22 04:25:26;;;;;;;1999.90;999.90;;;12.20;99.90;;;;;;5072894;28;20428;-71
2022/05/22 04:27:52;;;;;;;1999.90;999.90;;;12.20;99.90;;;;;;5072927;28;20407;-70
2022/05/22 04:30:18;;;;;;;1999.90;999.90;;;12.20;99.90;;;;;;5072778;28;20401;-70
2022/05/22 04:32:53;;;;;;;1999.90;999.90;;;12.20;99.90;;;;;;5072891;28;20398;-70
2022/05/22 04:35:20;;;;;;;1999.90;999.90;;;12.20;99.90;;;;;;5072247;28;20451;-71
2022/05/22 04:37:47;;;;;;;1999.90;999.90;;;12.20;99.90;;;;;;5072742;28;20414;-70
2022/05/22 04:40:12;;;;;;;1999.90;999.90;;;12.20;99.90;;;;;;5072816;28;20408;-70
2022/05/22 04:42:39;;;;;;;1999.90;999.90;;;12.10;99.90;;;;;;5072686;28;20413;-71
2022/05/22 04:45:07;;;;;;;1999.90;999.90;;;12.20;99.90;;;;;;5072243;28;20799;-70
2022/05/22 04:47:41;;;;;;;1999.90;999.90;;;12.20;99.90;;;;;;5072446;28;20850;-71
2022/05/22 04:50:08;;;;;;;1999.90;999.90;;;12.30;99.90;;;;;;5072382;28;20459;-70
2022/05/22 04:52:33;;;;;;;1999.90;999.90;;;12.40;99.90;;;;;;5072406;28;20409;-70
2022/05/22 04:54:59;;;;;;;1999.90;999.90;;;12.50;99.90;;;;;;5072110;28;20504;-71
2022/05/22 04:57:25;;;;;;;1999.90;999.90;;;12.60;99.90;;;;;;5067540;28;20193;-71
2022/05/22 04:59:50;;;;;;;1999.90;999.90;;;12.70;99.90;;;;;;5063424;28;20219;-70
2022/05/22 05:02:16;;;;;;;1999.90;999.90;;;12.80;99.90;;;;;;5058103;28;20170;-71
2022/05/22 05:04:41;;;;;;;1999.90;999.90;;;12.90;99.90;;;;;;5051313;28;20204;-71
2022/05/22 05:07:08;;;;;;;1999.90;999.90;;;13.00;99.90;;;;;;5052203;28;20198;-72
2022/05/22 05:09:35;;;;;;;1999.90;999.90;;;13.10;99.90;;;;;;5052202;28;20258;-71
2022/05/22 05:12:02;;;;;;;1999.90;999.90;;;13.20;99.90;;;;;;5052179;28;20431;-71
2022/05/22 05:14:27;;;;;;;1999.90;999.90;;;13.20;99.90;;;;;;5051730;28;20424;-71
2022/05/22 05:16:53;;;;;;;1999.90;999.90;;;13.30;99.90;;;;;;5052062;28;20443;-72
2022/05/22 05:19:19;;;;;;;1999.90;999.90;;;13.30;99.90;;;;;;5051677;28;20639;-71
2022/05/22 05:21:44;;;;;;;1999.90;999.90;;;13.40;99.90;;;;;;5051450;28;20213;-71
2022/05/22 05:24:10;;;;;;;1999.90;999.90;;;13.40;99.90;;;;;;5051206;28;20186;-71
2022/05/22 05:26:35;;;;;;;1999.90;999.90;;;13.40;99.90;;;;;;5052020;28;20167;-72
2022/05/22 05:29:01;;;;;;;1999.90;999.90;;;13.50;99.90;;;;;;5052028;28;20176;-71
2022/05/22 05:31:27;;;;;;;1999.90;999.90;;;13.50;99.90;;;;;;5051915;28;20170;-71
2022/05/22 05:33:52;;;;;;;1999.90;999.90;;;13.60;99.90;;;;;;5051471;28;20531;-71
2022/05/22 05:36:18;;;;;;;1999.90;999.90;;;13.60;99.90;;;;;;5051068;28;20205;-71
2022/05/22 05:38:43;;;;;;;1999.90;999.90;;;13.60;99.90;;;;;;5051764;28;20174;-71
2022/05/22 05:41:09;;;;;;;1999.90;999.90;;;13.70;99.90;;;;;;5051779;28;20827;-71
2022/05/22 05:43:35;;;;;;;1999.90;999.90;;;13.70;99.90;;;;;;5051700;28;20172;-71
2022/05/22 05:46:01;;;;;;;1999.90;999.90;;;13.90;99.90;;;;;;5051535;28;20378;-71
2022/05/22 05:48:26;;;;;;;1999.90;999.90;;;14.00;99.90;;;;;;5051392;28;20494;-71
2022/05/22 05:50:54;;;;;;;1999.90;999.90;;;14.00;99.90;;;;;;5051724;28;20581;-72
2022/05/22 05:53:20;;;;;;;1999.90;999.90;;;14.00;99.90;;;;;;5051735;28;20661;-72
2022/05/22 05:55:47;;;;;;;1999.90;999.90;;;14.10;99.90;;;;;;5051286;28;20448;-71
2022/05/22 05:58:13;;;;;;;1999.90;999.90;;;14.10;99.90;;;;;;5051769;28;20172;-71
2022/05/22 06:00:39;;;;;;;1999.90;999.90;;;14.20;99.90;;;;;;5051690;28;20415;-70
2022/05/22 06:03:05;;;;;;;1999.90;999.90;;;14.20;99.90;;;;;;5051478;28;20404;-71
2022/05/22 06:05:31;;;;;;;1999.90;999.90;;;14.30;99.90;;;;;;5051441;28;20427;-71
2022/05/22 06:07:57;;;;;;;1999.90;999.90;;;14.30;99.90;;;;;;5051575;28;20400;-71
2022/05/22 06:10:22;;;;;;;1999.90;999.90;;;14.30;99.90;;;;;;5051514;28;20161;-71
2022/05/22 06:12:48;;;;;;;1999.90;999.90;;;14.50;99.90;;;;;;5051591;28;20178;-71
2022/05/22 06:15:14;;;;;;;1999.90;999.90;;;14.60;99.90;;;;;;5051188;28;20680;-72
2022/05/22 06:17:44;;;;;;;1999.90;999.90;;;14.70;99.90;;;;;;5051238;28;20205;-71
2022/05/22 06:20:12;;;;;;;1999.90;999.90;;;14.80;99.90;;;;;;5051436;28;20501;-71
2022/05/22 06:22:38;;;;;;;1999.90;999.90;;;14.80;99.90;;;;;;5051378;28;20457;-71
2022/05/22 06:25:07;;;;;;;1999.90;999.90;;;14.80;99.90;;;;;;5051139;28;20421;-71
2022/05/22 06:27:32;;;;;;;1999.90;999.90;;;14.90;99.90;;;;;;5051408;28;20235;-71
2022/05/22 06:29:58;;;;;;;1999.90;999.90;;;14.90;99.90;;;;;;5051366;28;20835;-72
2022/05/22 06:32:24;;;;;;;1999.90;999.90;;;15.00;99.90;;;;;;5053772;28;20178;-72
2022/05/22 06:34:50;;;;;;;1999.90;999.90;;;15.10;99.90;;;;;;5054693;28;20821;-72
2022/05/22 06:37:21;;;;;;;1999.90;999.90;;;15.10;99.90;;;;;;5055136;28;20222;-71
2022/05/22 06:39:51;;;;;;;1999.90;999.90;;;15.20;99.90;;;;;;5055110;28;20895;-71
2022/05/22 06:42:22;;;;;;;1999.90;999.90;;;15.30;99.90;;;;;;5055061;28;20403;-72
2022/05/22 06:45:11;;;;;;;1999.90;999.90;;;15.40;99.90;;;;;;5054759;28;20418;-72
2022/05/22 06:47:38;;;;;;;1999.90;999.90;;;15.50;99.90;;;;;;5055026;28;20409;-72
2022/05/22 06:50:06;;;;;;;1999.90;999.90;;;15.60;99.90;;;;;;5055089;28;20918;-71
2022/05/22 06:52:33;;;;;;;1999.90;999.90;;;15.70;99.90;;;;;;5054962;28;20399;-72
2022/05/22 06:55:03;;;;;;;1999.90;999.90;;;15.80;99.90;;;;;;5054586;28;20427;-72
2022/05/22 06:57:29;;;;;;;1999.90;999.90;;;15.90;99.90;;;;;;5054798;28;21025;-72
2022/05/22 06:59:57;;;;;;;1999.90;999.90;;;15.90;99.90;;;;;;5054919;28;20948;-71
2022/05/22 07:02:25;;;;;;;1999.90;999.90;;;16.00;99.90;;;;;;5054910;28;20398;-71
2022/05/22 07:04:51;;;;;;;1999.90;999.90;;;16.10;99.90;;;;;;5054313;28;20425;-71
2022/05/22 07:07:16;;;;;;;1999.90;999.90;;;16.20;99.90;;;;;;5054613;28;20409;-72
2022/05/22 07:09:42;;;;;;;1999.90;999.90;;;16.20;99.90;;;;;;5054436;28;20777;-71
2022/05/22 07:12:12;;;;;;;1999.90;999.90;;;16.20;99.90;;;;;;5054676;28;20185;-71
2022/05/22 07:14:38;;;;;;;1999.90;999.90;;;16.20;99.90;;;;;;5054339;28;20277;-72
2022/05/22 07:17:06;;;;;;;1999.90;999.90;;;16.20;99.90;;;;;;5054353;28;20460;-71
2022/05/22 07:19:34;;;;;;;1999.90;999.90;;;16.30;99.90;;;;;;5054335;28;20753;-71
2022/05/22 07:22:04;;;;;;;1999.90;999.90;;;16.30;99.90;;;;;;5054175;28;20413;-71
2022/05/22 07:24:29;;;;;;;1999.90;999.90;;;16.40;99.90;;;;;;5053814;28;20422;-71
2022/05/22 07:26:55;;;;;;;1999.90;999.90;;;16.50;99.90;;;;;;5054281;28;20884;-71
2022/05/22 07:29:20;;;;;;;1999.90;999.90;;;16.70;99.90;;;;;;5054075;28;20257;-71
2022/05/22 07:31:46;;;;;;;1999.90;999.90;;;16.80;99.90;;;;;;5053976;28;20513;-71
2022/05/22 07:34:12;;;;;;;1999.90;999.90;;;16.80;99.90;;;;;;5053757;28;20275;-71
2022/05/22 07:36:37;;;;;;;1999.90;999.90;;;17.00;99.90;;;;;;5053852;28;20186;-71
2022/05/22 07:39:04;;;;;;;1999.90;999.90;;;17.00;99.90;;;;;;5053918;28;20175;-71
2022/05/22 07:41:31;;;;;;;1999.90;999.90;;;17.10;99.90;;;;;;5053805;28;20172;-71
2022/05/22 07:43:57;;;;;;;1999.90;999.90;;;17.20;99.90;;;;;;5052767;28;20430;-71
2022/05/22 07:46:22;;;;;;;1999.90;999.90;;;17.20;99.90;;;;;;5053452;28;20410;-70
2022/05/22 07:48:48;;;;;;;1999.90;999.90;;;17.40;99.90;;;;;;5053671;28;20411;-71
2022/05/22 07:51:14;;;;;;;1999.90;999.90;;;17.50;99.90;;;;;;5053613;28;20220;-71
2022/05/22 07:53:40;;;;;;;1999.90;999.90;;;17.60;99.90;;;;;;5053490;28;20179;-71
2022/05/22 07:56:06;;;;;;;1999.90;999.90;;;17.60;99.90;;;;;;5053275;28;20445;-71
2022/05/22 07:58:33;;;;;;;1999.90;999.90;;;17.70;99.90;;;;;;5053489;28;20466;-71
2022/05/22 08:00:59;;;;;;;1999.90;999.90;;;17.90;99.90;;;;;;5053587;28;20236;-72
2022/05/22 08:03:25;;;;;;;1999.90;999.90;;;18.10;99.90;;;;;;5053539;28;20406;-72
2022/05/22 08:05:53;;;;;;;1999.90;999.90;;;18.20;99.90;;;;;;5053041;28;20791;-72
2022/05/22 08:08:19;;;;;;;1999.90;999.90;;;18.30;99.90;;;;;;5053503;28;20465;-72
2022/05/22 08:10:44;;;;;;;1999.90;999.90;;;18.40;99.90;;;;;;5053354;28;20767;-71
2022/05/22 08:13:11;;;;;;;1999.90;999.90;;;18.50;99.90;;;;;;5053288;28;20710;-72
2022/05/22 08:15:38;;;;;;;1999.90;999.90;;;18.60;99.90;;;;;;5052779;28;20718;-71
2022/05/22 08:18:07;;;;;;;1999.90;999.90;;;18.70;99.90;;;;;;5053305;28;20398;-71
2022/05/22 08:20:36;;;;;;;1999.90;999.90;;;18.70;99.90;;;;;;5052942;28;20417;-71
2022/05/22 08:23:05;;;;;;;1999.90;999.90;;;18.80;99.90;;;;;;5053225;28;20407;-71
2022/05/22 08:25:31;;;;;;;1999.90;999.90;;;18.90;99.90;;;;;;5052773;28;20417;-71
2022/05/22 08:27:58;;;;;;;1999.90;999.90;;;19.10;99.90;;;;;;5053153;28;20479;-71
2022/05/22 08:30:26;;;;;;;1999.90;999.90;;;19.20;99.90;;;;;;5052853;28;20415;-72
2022/05/22 08:32:52;;;;;;;1999.90;999.90;;;19.20;99.90;;;;;;5052782;28;20411;-72
2022/05/22 08:35:24;;;;;;;1999.90;999.90;;;19.30;99.90;;;;;;5052876;28;20544;-71
2022/05/22 08:37:50;;;;;;;1999.90;999.90;;;19.40;99.90;;;;;;5053131;28;20502;-72
2022/05/22 08:40:19;;;;;;;1999.90;999.90;;;19.50;99.90;;;;;;5052726;28;20815;-71
2022/05/22 08:43:04;;;;;;;1999.90;999.90;;;19.30;99.90;;;;;;5052562;28;20416;-71
2022/05/22 08:45:56;;;;;;;1999.90;999.90;;;19.30;99.90;;;;;;5052242;28;20420;-71
2022/05/22 08:48:31;;;;;;;1999.90;999.90;;;19.40;99.90;;;;;;5006414;28;20417;-70
2022/05/22 08:50:58;;;;;;;1999.90;999.90;;;19.50;99.90;;;;;;5052659;28;20770;-70
2022/05/22 08:53:40;;;;;;;1999.90;999.90;;;19.70;99.90;;;;;;5052418;28;20452;-71
2022/05/22 08:59:21;;;;;;;1999.90;999.90;;;20.10;99.90;;;;;;5052682;28;20410;-71
2022/05/22 09:02:15;;;;;;;1999.90;999.90;;;20.40;99.90;;;;;;5052329;28;20407;-71
2022/05/22 09:05:05;;;;;;;1999.90;999.90;;;20.60;99.90;;;;;;5051956;28;20434;-71
2022/05/22 09:07:46;;;;;;;1999.90;999.90;;;20.80;99.90;;;;;;5051730;28;20468;-71
2022/05/22 09:10:18;;;;;;;1999.90;999.90;;;20.90;99.90;;;;;;5052678;28;20456;-71
2022/05/22 09:12:56;;;;;;;1999.90;999.90;;;20.80;99.90;;;;;;5052081;28;20508;-71
2022/05/22 09:15:23;;;;;;;1999.90;999.90;;;20.70;99.90;;;;;;5051842;28;21021;-71
2022/05/22 09:18:05;;;;;;;1999.90;999.90;;;20.60;99.90;;;;;;5051975;28;20456;-71
2022/05/22 09:20:43;;;;;;;1999.90;999.90;;;20.30;99.90;;;;;;5052447;28;20459;-72
2022/05/22 09:23:49;;;;;;;1999.90;999.90;;;20.00;99.90;;;;;;5051884;28;20403;-71
2022/05/22 09:26:25;;;;;;;1999.90;999.90;;;19.80;99.90;;;;;;4971629;28;20532;-71
2022/05/22 09:29:02;;;;;;;1999.90;999.90;;;19.70;99.90;;;;;;5051897;28;20412;-71
2022/05/22 09:31:46;;;;;;;1999.90;999.90;;;20.00;99.90;;;;;;5051950;28;20412;-72
2022/05/22 09:34:41;;;;;;;1999.90;999.90;;;20.30;99.90;;;;;;5051441;28;20539;-71
2022/05/22 09:37:36;;;;;;;1999.90;999.90;;;20.70;99.90;;;;;;5051785;28;20469;-71
2022/05/22 09:40:39;;;;;;;1999.90;999.90;;;21.10;99.90;;;;;;5030024;28;20485;-71
2022/05/22 09:43:41;;;;;;;1999.90;999.90;;;21.40;99.90;;;;;;5051787;28;20820;-71
2022/05/22 09:46:49;;;;;;;1999.90;999.90;;;21.60;99.90;;;;;;5051416;28;20434;-71
2022/05/22 09:49:37;;;;;;;1999.90;999.90;;;21.80;99.90;;;;;;5051500;28;20795;-70
2022/05/22 09:52:15;;;;;;;1999.90;999.90;;;21.70;99.90;;;;;;5051615;28;20407;-70
2022/05/22 09:55:10;;;;;;;1999.90;999.90;;;21.40;99.90;;;;;;5051286;28;20409;-71
2022/05/22 09:57:35;;;;;;;1999.90;999.90;;;21.60;99.90;;;;;;5030370;28;20449;-71
2022/05/22 10:00:10;;;;;;;1999.90;999.90;;;21.90;99.90;;;;;;5051667;28;20531;-71
2022/05/22 10:02:53;;;;;;;1999.90;999.90;;;22.10;99.90;;;;;;5051559;28;20183;-71
2022/05/22 10:05:29;;;;;;;1999.90;999.90;;;22.30;99.90;;;;;;5051144;28;20432;-70
2022/05/22 10:08:00;;;;;;;1999.90;999.90;;;22.60;99.90;;;;;;5055147;28;20425;-70
2022/05/22 10:10:39;;;;;;;1999.90;999.90;;;22.90;99.90;;;;;;5055581;28;20729;-71
2022/05/22 10:13:13;;;;;;;1999.90;999.90;;;23.30;99.90;;;;;;5055642;28;20387;-72
2022/05/22 10:15:54;;;;;;;1999.90;999.90;;;23.40;99.90;;;;;;5055429;28;20481;-72
2022/05/22 10:18:56;;;;;;;1999.90;999.90;;;23.40;98.50;;;;;;5056071;28;20401;-72
2022/05/22 10:21:44;;;;;;;1999.90;999.90;;;23.10;99.90;;;;;;5056088;28;20378;-72
2022/05/22 10:24:34;;;;;;;1999.90;999.90;;;22.30;99.90;;;;;;5055082;28;20436;-72
2022/05/22 10:27:39;;;;;;;1999.90;999.90;;;21.90;99.90;;;;;;5055406;28;20466;-72
2022/05/22 10:30:38;;;;;;;1999.90;999.90;;;22.00;99.90;;;;;;5055387;28;20959;-72
2022/05/22 10:33:16;;;;;;;1999.90;999.90;;;22.20;99.90;;;;;;5049003;28;20424;-71
2022/05/22 10:36:16;;;;;;;1999.90;999.90;;;22.30;99.90;;;;;;5054611;28;20423;-71
2022/05/22 10:38:52;;;;;;;1999.90;999.90;;;22.30;99.90;;;;;;5055004;28;20403;-71
2022/05/22 10:44:16;;;;;;;1999.90;999.90;;;22.70;99.90;;;;;;5054841;28;20910;-72
2022/05/22 10:46:54;;;;;;;1999.90;999.90;;;22.90;99.90;;;;;;5054909;28;20409;-71
2022/05/22 10:49:24;;;;;;;1999.90;999.90;;;23.10;99.90;;;;;;5054887;28;20386;-72
2022/05/22 10:51:59;;;;;;;1999.90;999.90;;;23.20;99.90;;;;;;5054833;28;20413;-71
2022/05/22 10:54:29;;;;;;;1999.90;999.90;;;23.00;99.90;;;;;;5054356;28;20458;-71
2022/05/22 10:57:06;;;;;;;1999.90;999.90;;;22.70;99.90;;;;;;5054438;28;20923;-71
2022/05/22 10:59:32;;;;;;;1999.90;999.90;;;22.70;99.90;;;;;;5054679;28;20949;-71
2022/05/22 11:02:00;;;;;;;1999.90;999.90;;;23.10;99.90;;;;;;5054642;28;20413;-71
2022/05/22 11:04:42;;;;;;;1999.90;999.90;;;23.40;98.40;;;;;;5054119;28;20409;-71
2022/05/22 11:07:08;;;;;;;1999.90;999.90;;;23.80;99.40;;;;;;5054370;28;20411;-71
2022/05/22 11:09:50;;;;;;;1999.90;999.90;;;24.10;97.50;;;;;;5054680;28;20409;-71
2022/05/22 11:12:27;;;;;;;1999.90;999.90;;;24.40;94.40;;;;;;5054517;28;20424;-71
2022/05/22 11:15:15;;;;;;;1999.90;999.90;;;24.60;93.90;;;;;;5054006;28;20392;-71
2022/05/22 11:17:41;;;;;;;1999.90;999.90;;;24.70;88.50;;;;;;5053027;28;20947;-71
2022/05/22 11:20:16;;;;;;;1999.90;999.90;;;24.90;83.00;;;;;;5054090;28;20475;-70
2022/05/22 11:22:59;;;;;;;1999.90;999.90;;;24.90;85.00;;;;;;5054231;28;20441;-71
2022/05/22 11:26:01;;;;;;;1999.90;999.90;;;24.90;87.10;;;;;;5054406;28;20893;-73
2022/05/22 11:29:02;;;;;;;1999.90;999.90;;;24.80;94.10;;;;;;5016538;28;20384;-72
2022/05/22 11:32:03;;;;;;;1999.90;999.90;;;25.10;89.90;;;;;;5054492;28;20496;-72
2022/05/22 11:34:44;;;;;;;1999.90;999.90;;;25.00;80.60;;;;;;5054018;28;20433;-72
2022/05/22 11:37:30;;;;;;;1999.90;999.90;;;24.70;85.50;;;;;;5055066;28;20435;-73
2022/05/22 11:40:28;;;;;;;1999.90;999.90;;;24.50;81.70;;;;;;5054551;28;20401;-73
2022/05/22 11:43:15;;;;;;;1999.90;999.90;;;24.70;85.40;;;;;;5054419;28;20380;-73
2022/05/22 11:45:59;;;;;;;1999.90;999.90;;;25.00;80.00;;;;;;5054825;28;20422;-71
2022/05/22 11:48:48;;;;;;;1999.90;999.90;;;25.30;85.60;;;;;;5054515;28;20390;-73
2022/05/22 11:51:32;;;;;;;1999.90;999.90;;;25.70;72.30;;;;;;5054709;28;20372;-73
2022/05/22 11:54:08;;;;;;;1999.90;999.90;;;25.90;74.50;;;;;;5054501;28;20487;-72
2022/05/22 11:56:39;;;;;;;1999.90;999.90;;;26.00;67.00;;;;;;5054042;28;20440;-73
2022/05/22 11:59:46;;;;;;;1999.90;999.90;;;26.00;61.60;;;;;;5054156;28;20373;-73
2022/05/22 12:02:45;;;;;;;1999.90;999.90;;;26.50;58.70;;;;;;5054660;28;20779;-74
2022/05/22 12:05:45;;;;;;;1999.90;999.90;;;27.10;55.00;;;;;;5049134;28;20759;-72
2022/05/22 12:08:47;;;;;;;1999.90;999.90;;;28.00;53.90;;;;;;5054805;28;21029;-72
2022/05/22 12:11:37;;;;;;;1999.90;999.90;;;29.30;47.70;;;;;;5055134;28;20405;-73
2022/05/22 12:14:16;;;;;;;1999.90;999.90;;;30.40;41.20;;;;;;5056990;28;20495;-72
2022/05/22 12:16:55;;;;;;;1999.90;999.90;;;31.30;32.90;;;;;;5058009;28;20452;-72
2022/05/22 12:19:56;;;;;;;1999.90;999.90;;;31.80;27.90;;;;;;5056036;28;20429;-72
2022/05/22 12:25:23;;;;;;;1999.90;999.90;;;32.70;24.40;;;;;;5046620;28;20521;-71
2022/05/22 12:27:51;;;;;;;1999.90;999.90;;;33.20;21.90;;;;;;5052096;28;20419;-71
2022/05/22 12:30:26;;;;;;;1999.90;999.90;;;33.30;19.30;;;;;;5052103;28;20414;-71